Latest Weather Observations for Townsville

IDQ60801

Issued at 6:35 pm EST Wednesday 20 August 2014 (issued every 30 minutes, with the page automatically refreshed every 10 minutes)

About weather observations | Map of weather stations | Latest weather observations for QLD | Other Formats
Station Details ID: 032040 Name: TOWNSVILLE AERO Lat: -19.25 Lon: 146.77 Height: 4.34 m
Data from the previous 72 hours. | See also: Recent months at Townsville
Date/Time
EST
Temp
°C
App
Temp
°C
Dew
Point
Rel
Hum
%
Delta-T
°C
Wind Press
QNH
hPa
Press
MSL
hPa
Rain
since 9 am
mm
Dir
 
Spd
km/h
Gust
km/h
Spd
kts
Gust
kts
20/06:30pm 20.2 17.8 12.8 62 4.2 ENE 17 24 9 13 1017.2 - 0.0
20/06:00pm 20.6 17.9 12.8 61 4.4 ENE 19 26 10 14 1017.0 1017.0 0.0
20/05:30pm 21.3 17.6 12.7 58 4.9 NE 24 28 13 15 1017.0 - 0.0
20/05:00pm 21.8 18.5 13.9 61 4.6 ENE 24 30 13 16 1016.7 - 0.0
20/04:30pm 22.5 19.4 14.5 60 4.7 ENE 24 30 13 16 1016.1 - 0.0
20/04:00pm 22.7 19.6 13.4 55 5.4 ENE 22 28 12 15 1015.7 - 0.0
20/03:30pm 22.9 19.7 13.2 54 5.6 ENE 22 30 12 16 1015.5 - 0.0
20/03:00pm 23.0 19.6 13.7 55 5.4 ENE 24 30 13 16 1015.6 1015.6 0.0
20/02:30pm 22.9 19.8 13.4 55 5.5 NE 22 28 12 15 1015.9 - 0.0
20/02:00pm 23.3 20.3 11.8 48 6.5 NE 19 22 10 12 1016.2 - 0.0
20/01:30pm 24.1 21.5 10.6 42 7.5 NE 15 20 8 11 1016.5 - 0.0
20/01:00pm 23.7 20.4 9.5 40 7.7 ENE 17 22 9 12 1016.6 - 0.0
20/12:30pm 23.6 21.0 10.6 44 7.2 NE 15 20 8 11 1017.1 - 0.0
20/12:00pm 24.1 21.3 11.3 44 7.2 ENE 17 26 9 14 1017.5 1017.5 0.0
20/11:30am 23.0 20.1 11.1 47 6.6 NE 17 20 9 11 1018.0 - 0.0
20/11:00am 23.6 21.5 11.0 45 7.0 ENE 13 19 7 10 1018.4 - 0.0
20/10:30am 22.9 21.2 11.2 47 6.5 NE 11 19 6 10 1018.6 - 0.0
20/10:00am 22.6 21.4 11.5 49 6.2 ENE 9 17 5 9 1018.9 - 0.0
20/09:30am 21.5 20.8 12.1 55 5.3 SE 7 11 4 6 1019.0 - 0.0
20/09:00am 20.1 19.9 11.8 59 4.6 SE 4 9 2 5 1018.8 1018.8 0.0
20/08:30am 17.8 18.7 12.8 72 2.8 CALM 0 0 0 0 1018.6 - 0.0
20/08:00am 16.4 17.4 13.2 81 1.8 CALM 0 0 0 0 1018.5 - 0.0
20/07:30am 14.2 15.0 12.4 89 1.0 CALM 0 0 0 0 1018.2 - 0.0
20/07:00am 12.1 12.5 11.1 94 0.5 CALM 0 0 0 0 1017.8 - 0.0
20/06:30am 11.3 11.4 10.3 94 0.5 CALM 0 0 0 0 1017.6 - 0.0
20/06:00am 11.9 12.1 10.7 92 0.6 NNW 0 0 0 0 1017.3 1017.3 0.0
20/05:30am 11.5 11.6 10.3 92 0.6 NNW 0 6 0 3 1017.0 - 0.0
20/05:00am 12.1 11.0 10.8 92 0.7 NNW 7 9 4 5 1016.9 - 0.0
20/04:30am 11.9 12.2 10.9 94 0.5 CALM 0 0 0 0 1016.6 - 0.0
20/04:00am 12.0 12.4 11.2 95 0.4 CALM 0 0 0 0 1016.6 - 0.0
20/03:30am 12.4 12.9 11.5 94 0.5 CALM 0 0 0 0 1016.9 - 0.0
20/03:00am 12.6 12.7 11.5 93 0.6 WSW 2 6 1 3 1016.9 1016.9 0.0
20/02:30am 12.8 12.1 11.5 92 0.7 WSW 6 7 3 4 1017.0 - 0.0
20/02:00am 12.6 11.9 11.3 92 0.7 SSW 6 7 3 4 1017.1 - 0.0
20/01:30am 14.2 13.1 12.0 87 1.2 S 9 9 5 5 1017.2 - 0.0
20/01:00am 15.0 13.6 10.8 76 2.2 S 9 11 5 6 1017.3 - 0.0
20/12:30am 14.6 13.6 11.0 79 1.9 S 7 9 4 5 1017.5 - 0.0
20/12:00am 14.7 13.2 10.7 77 2.1 S 9 11 5 6 1017.6 1017.6 0.0
 
Date/Time
EST
Temp
°C
App
Temp
°C
Dew
Point
Rel
Hum
%
Delta-T
°C
Wind Press
QNH
hPa
Press
MSL
hPa
Rain
since 9 am
mm
Dir
 
Spd
km/h
Gust
km/h
Spd
kts
Gust
kts
19/11:30pm 14.6 14.5 12.0 84 1.4 WSW 4 9 2 5 1017.7 - 0.0
19/11:00pm 14.8 15.4 11.8 82 1.6 CALM 0 0 0 0 1017.9 - 0.0
19/10:30pm 14.2 13.5 12.0 87 1.2 WNW 7 9 4 5 1017.9 - 0.0
19/10:00pm 14.3 13.2 11.9 85 1.3 W 9 13 5 7 1017.8 - 0.0
19/09:30pm 17.2 15.9 11.3 68 3.2 SSE 9 11 5 6 1017.7 - 0.0
19/09:00pm 16.8 15.5 11.2 69 3.0 SSE 9 11 5 6 1017.5 1017.5 0.0
19/08:30pm 16.9 17.3 11.4 70 3.0 CALM 0 0 0 0 1017.2 - 0.0
19/08:00pm 17.5 17.9 11.4 67 3.3 CALM 0 0 0 0 1016.9 - 0.0
19/07:30pm 18.3 18.7 11.3 63 3.8 CALM 0 0 0 0 1016.6 - 0.0
19/07:00pm 17.7 18.1 11.2 65 3.5 CALM 0 0 0 0 1016.3 - 0.0
19/06:30pm 18.3 17.6 12.0 66 3.5 NW 7 11 4 6 1015.9 - 0.0
19/06:00pm 19.4 17.3 9.6 53 5.2 NNW 11 13 6 7 1015.5 1015.5 0.0
19/05:30pm 21.6 18.7 8.3 42 7.0 NNW 13 17 7 9 1015.1 - 0.0
19/05:00pm 22.4 19.1 7.9 39 7.6 NNW 15 19 8 10 1014.8 - 0.0
19/04:30pm 23.2 20.0 8.3 38 7.9 N 15 19 8 10 1014.5 - 0.0
19/04:00pm 24.7 21.4 6.3 30 9.5 NE 13 15 7 8 1014.2 - 0.0
19/03:30pm 24.3 20.0 7.0 33 9.0 NE 19 22 10 12 1014.2 - 0.0
19/03:00pm 24.1 18.9 7.3 34 8.8 ENE 24 30 13 16 1014.2 1014.2 0.0
19/02:30pm 24.1 19.0 7.8 35 8.6 ENE 24 30 13 16 1014.5 - 0.0
19/02:00pm 24.0 19.8 7.4 34 8.7 ENE 19 26 10 14 1015.0 - 0.0
19/01:30pm 24.6 20.6 4.9 28 9.9 E 15 20 8 11 1015.6 - 0.0
19/01:00pm 24.8 20.2 1.5 21 11.0 S 15 24 8 13 1016.2 - 0.0
19/12:30pm 24.2 19.5 1.0 21 10.8 S 15 22 8 12 1016.9 - 0.0
19/12:00pm 23.9 18.9 1.2 22 10.6 SSW 17 22 9 12 1017.4 1017.4 0.0
19/11:30am 23.3 18.6 3.2 27 9.7 SSW 17 24 9 13 1017.8 - 0.0
19/11:00am 23.0 17.0 3.3 27 9.5 SSW 24 30 13 16 1018.5 - 0.0
19/10:30am 22.8 18.1 2.9 27 9.5 S 17 26 9 14 1019.3 - 0.0
19/10:00am 21.9 16.2 3.0 29 9.0 SSW 22 30 12 16 1019.7 - 0.0
19/09:30am 20.8 16.5 5.1 35 7.7 SSW 17 20 9 11 1019.9 - 0.0
19/09:00am 19.9 15.1 5.7 39 7.0 SSW 20 26 11 14 1019.9 1019.9 0.0
19/08:30am 19.0 14.5 6.3 43 6.3 SSW 19 24 10 13 1019.7 - 0.0
19/08:00am 16.5 14.8 9.8 64 3.5 W 9 11 5 6 1019.7 - 0.0
19/07:30am 14.5 13.3 9.7 73 2.5 W 6 7 3 4 1019.3 - 0.0
19/07:00am 11.8 10.6 9.4 85 1.2 WNW 6 7 3 4 1019.0 - 0.0
19/06:30am 11.5 10.8 8.7 83 1.4 WSW 2 7 1 4 1018.6 - 0.0
19/06:00am 12.0 10.5 9.0 82 1.5 N 7 9 4 5 1018.5 1018.5 0.0
19/05:30am 12.5 12.2 8.7 77 1.9 CALM 0 0 0 0 1018.0 - 0.0
19/05:00am 14.6 11.3 8.0 64 3.3 S 15 19 8 10 1017.8 - 0.0
19/04:30am 11.3 11.2 9.3 87 1.0 CALM 0 0 0 0 1017.6 - 0.0
19/04:00am 11.8 11.7 9.4 85 1.2 CALM 0 0 0 0 1017.4 - 0.0
19/03:30am 12.5 12.6 10.0 85 1.3 CALM 0 0 0 0 1017.4 - 0.0
19/03:00am 13.0 12.9 9.5 79 1.8 CALM 0 0 0 0 1017.2 1017.2 0.0
19/02:30am 13.9 12.8 9.8 76 2.1 S 6 7 3 4 1017.2 - 0.0
19/02:00am 14.1 13.5 10.5 79 1.9 S 4 9 2 5 1017.3 - 0.0
19/01:30am 14.0 14.0 12.5 91 0.8 W 4 19 2 10 1017.5 - 0.0
19/01:00am 13.7 14.5 12.6 93 0.6 CALM 0 0 0 0 1017.4 - 0.0
19/12:30am 14.2 15.0 12.4 89 1.0 CALM 0 0 0 0 1017.5 - 0.0
19/12:00am 14.5 15.4 13.0 91 0.8 CALM 0 0 0 0 1017.6 1017.6 0.0
 
Date/Time
EST
Temp
°C
App
Temp
°C
Dew
Point
Rel
Hum
%
Delta-T
°C
Wind Press
QNH
hPa
Press
MSL
hPa
Rain
since 9 am
mm
Dir
 
Spd
km/h
Gust
km/h
Spd
kts
Gust
kts
18/11:30pm 14.6 15.4 12.6 88 1.1 CALM 0 0 0 0 1017.7 - 0.0
18/11:00pm 14.3 14.2 13.2 93 0.6 NW 6 11 3 6 1017.6 - 0.0
18/10:30pm 14.8 14.4 13.0 89 1.0 S 7 7 4 4 1017.5 - 0.0
18/10:00pm 16.5 17.2 12.3 76 2.3 CALM 0 0 0 0 1017.3 - 0.0
18/09:30pm 17.1 16.2 12.6 75 2.5 S 9 11 5 6 1017.1 - 0.0
18/09:00pm 17.8 17.3 12.6 71 2.9 S 7 9 4 5 1017.0 1017.0 0.0
18/08:30pm 17.6 16.7 12.6 72 2.8 SW 9 9 5 5 1016.9 - 0.0
18/08:00pm 18.1 17.3 12.9 71 2.9 WSW 9 11 5 6 1016.7 - 0.0
18/07:30pm 17.8 16.9 13.8 77 2.3 W 11 13 6 7 1016.4 - 0.0
18/07:00pm 18.7 17.3 13.4 71 3.0 W 13 15 7 8 1015.9 - 0.0
18/06:30pm 19.4 19.9 14.0 71 3.1 NW 4 9 2 5 1015.5 - 0.0
18/06:00pm 20.4 19.2 11.5 56 4.9 N 9 13 5 7 1015.2 1015.2 0.0
18/05:30pm 22.2 18.9 9.6 44 6.8 ENE 17 20 9 11 1014.9 - 0.0
18/05:00pm 22.8 19.5 9.5 42 7.2 NE 17 20 9 11 1014.7 - 0.0
18/04:30pm 23.6 19.9 9.4 40 7.7 ENE 19 26 10 14 1014.4 - 0.0
18/04:00pm 23.3 19.1 9.9 42 7.3 ENE 22 26 12 14 1014.1 - 0.0
18/03:30pm 24.2 20.0 9.8 40 7.9 ENE 22 30 12 16 1014.2 - 0.0
18/03:00pm 25.9 23.3 4.4 25 10.8 SSW 7 17 4 9 1014.1 1014.1 0.0
18/02:30pm 25.5 22.0 3.6 24 10.8 SSW 11 20 6 11 1014.3 - 0.0
18/02:00pm 24.6 21.5 3.6 25 10.3 SE 9 13 5 7 1014.7 - 0.0
18/01:30pm 24.6 21.5 5.5 29 9.7 SW 11 19 6 10 1015.2 - 0.0
18/01:00pm 24.2 19.7 4.2 27 9.9 SSW 17 26 9 14 1015.8 - 0.0
18/12:30pm 24.0 19.2 4.5 28 9.7 SSW 19 32 10 17 1016.3 - 0.0
18/12:00pm 23.5 18.2 4.8 29 9.3 S 22 33 12 18 1016.9 1016.9 0.0
18/11:30am 22.4 16.3 4.8 31 8.7 SSW 26 37 14 20 1017.4 - 0.0
18/11:00am 21.9 15.8 4.6 32 8.5 SSW 26 35 14 19 1017.9 - 0.0
18/10:30am 21.4 14.1 4.3 32 8.3 SSW 32 41 17 22 1018.3 - 0.0
18/10:00am 20.5 14.4 5.0 36 7.6 SSW 26 41 14 22 1018.7 - 0.0
18/09:30am 20.2 14.2 5.4 38 7.3 SSW 26 32 14 17 1018.6 - 0.0
18/09:00am 19.3 13.1 4.5 37 7.1 SSW 26 32 14 17 1018.6 1018.6 0.0
18/08:30am 18.8 13.0 4.6 39 6.8 SW 24 30 13 16 1018.5 - 0.0
18/08:00am 18.2 13.0 3.7 38 6.8 SW 20 26 11 14 1018.5 - 0.0
18/07:30am 17.7 14.0 4.7 42 6.2 SSW 13 19 7 10 1018.1 - 0.0
18/07:00am 14.9 11.6 6.4 57 4.1 WSW 13 15 7 8 1017.8 - 0.0
18/06:30am 14.1 11.6 6.4 60 3.7 W 9 15 5 8 1017.5 - 0.0
18/06:00am 14.0 11.7 7.5 65 3.2 SW 9 13 5 7 1017.2 1017.2 0.0
18/05:30am 17.6 13.8 3.7 39 6.5 SW 13 17 7 9 1016.7 - 0.0
18/05:00am 17.8 13.3 4.0 40 6.5 SW 17 19 9 10 1016.4 - 0.0
18/04:30am 17.6 13.9 4.3 41 6.3 SW 13 15 7 8 1016.3 - 0.0
18/04:00am 17.5 14.3 5.2 44 5.9 SSW 11 15 6 8 1016.3 - 0.0
18/03:30am 18.4 13.9 4.0 38 6.8 SW 17 22 9 12 1016.4 - 0.0
18/03:00am 18.2 14.5 4.3 39 6.6 SW 13 17 7 9 1016.4 1016.4 0.0
18/02:30am 18.2 13.3 4.0 39 6.7 SSW 19 26 10 14 1016.2 - 0.0
18/02:00am 15.4 13.6 7.1 57 4.1 SSW 6 11 3 6 1016.5 - 0.0
18/01:30am 18.0 14.7 4.3 40 6.5 SW 11 13 6 7 1016.5 - 0.0
18/01:00am 17.9 14.4 5.3 43 6.1 SSW 13 17 7 9 1016.6 - 0.0
18/12:30am 19.0 15.1 3.5 35 7.3 SW 13 15 7 8 1016.6 - 0.0
18/12:00am 18.6 14.0 3.7 37 7.0 SSW 17 20 9 11 1016.5 1016.5 0.0
 
Date/Time
EST
Temp
°C
App
Temp
°C
Dew
Point
Rel
Hum
%
Delta-T
°C
Wind Press
QNH
hPa
Press
MSL
hPa
Rain
since 9 am
mm
Dir
 
Spd
km/h
Gust
km/h
Spd
kts
Gust
kts
17/11:30pm 19.4 13.7 2.9 33 7.7 SSW 22 28 12 15 1016.3 - 0.0
17/11:00pm 19.4 14.1 3.2 34 7.6 SSW 20 24 11 13 1016.1 - 0.0
17/10:30pm 19.0 15.3 4.7 39 6.9 SSW 13 19 7 10 1016.1 - 0.0
17/10:00pm 16.8 15.2 11.7 72 2.8 SSW 11 17 6 9 1015.9 - 0.0
17/09:30pm 19.1 18.4 13.3 69 3.3 SSW 9 13 5 7 1015.7 - 0.0
17/09:00pm 19.0 18.9 13.8 72 3.0 WSW 7 9 4 5 1015.4 1015.4 0.0
17/08:30pm 19.1 18.7 14.1 73 2.9 S 9 11 5 6 1015.0 - 0.0
17/08:00pm 19.5 20.5 13.3 67 3.5 CALM 0 0 0 0 1014.6 - 0.0
17/07:30pm 19.9 18.1 13.2 65 3.8 E 15 17 8 9 1014.1 - 0.0
17/07:00pm 20.0 18.2 14.5 70 3.2 E 17 19 9 10 1013.5 - 0.0

Other Formats:

Comma delimited format used in spreadsheet applications
http://www.bom.gov.au/fwo/IDQ60801/IDQ60801.94294.axf

JavaScript Object Notation format (JSON) in row-major order
http://www.bom.gov.au/fwo/IDQ60801/IDQ60801.94294.json